createdAt,value
2018-11-25T00:00:10.788Z,27.77
2018-11-25T00:02:39.085Z,29.13
2018-11-25T00:05:08.487Z,26.67
2018-11-25T00:07:36.797Z,26.60
2018-11-25T00:10:06.038Z,26.00
2018-11-25T00:12:34.525Z,27.23
2018-11-25T00:15:02.888Z,27.27
2018-11-25T00:17:31.317Z,25.27
2018-11-25T00:19:59.585Z,25.80
2018-11-25T00:22:27.917Z,26.63
2018-11-25T00:24:56.217Z,26.00
2018-11-25T00:27:24.571Z,26.97
2018-11-25T00:29:52.797Z,28.20
2018-11-25T00:32:21.177Z,29.40
2018-11-25T00:34:49.417Z,27.20
2018-11-25T00:37:18.063Z,26.90
2018-11-25T00:39:46.337Z,28.63
2018-11-25T00:42:14.705Z,28.00
2018-11-25T00:44:43.000Z,26.37
2018-11-25T00:47:11.302Z,25.13
2018-11-25T00:49:39.598Z,25.83
2018-11-25T00:52:07.877Z,26.20
2018-11-25T00:54:36.197Z,28.73
2018-11-25T00:57:04.465Z,27.97
2018-11-25T00:59:33.325Z,25.67
2018-11-25T01:02:01.578Z,27.73
2018-11-25T01:04:30.117Z,27.13
2018-11-25T01:06:58.325Z,27.43
2018-11-25T01:09:26.465Z,26.50
2018-11-25T01:11:54.637Z,27.40
2018-11-25T01:14:22.865Z,27.40
2018-11-25T01:16:51.070Z,26.03
2018-11-25T01:19:19.846Z,26.30
2018-11-25T01:21:48.185Z,26.70
2018-11-25T01:24:16.405Z,26.57
2018-11-25T01:26:44.665Z,26.20
2018-11-25T01:29:13.026Z,24.77
2018-11-25T01:31:41.307Z,25.83
2018-11-25T01:34:09.506Z,27.67
2018-11-25T01:36:37.745Z,28.30
2018-11-25T01:39:06.985Z,25.47
2018-11-25T01:41:35.325Z,27.40
2018-11-25T01:44:04.085Z,26.47
2018-11-25T01:46:32.974Z,26.13
2018-11-25T01:49:01.226Z,26.33
2018-11-25T01:51:29.429Z,27.07
2018-11-25T01:53:57.758Z,26.70
2018-11-25T01:56:26.026Z,25.57
2018-11-25T01:58:54.205Z,26.00
2018-11-25T02:01:23.361Z,25.07
2018-11-25T02:03:51.657Z,24.03
2018-11-25T02:06:21.087Z,22.93
2018-11-25T02:08:49.305Z,22.07
2018-11-25T02:11:17.518Z,23.00
2018-11-25T02:13:45.706Z,22.53
2018-11-25T02:16:13.885Z,23.30
2018-11-25T02:18:42.146Z,21.70
2018-11-25T02:21:10.405Z,20.37
2018-11-25T02:23:39.069Z,20.83
2018-11-25T02:26:07.346Z,22.00
2018-11-25T02:28:36.606Z,21.13
2018-11-25T02:31:04.875Z,20.67
2018-11-25T02:33:33.146Z,22.00
2018-11-25T02:36:01.446Z,20.93
2018-11-25T02:38:29.730Z,22.03
2018-11-25T02:40:57.877Z,22.50
2018-11-25T02:43:26.340Z,22.13
2018-11-25T02:45:54.578Z,22.07
2018-11-25T02:48:22.877Z,22.27
2018-11-25T02:50:51.138Z,22.83
2018-11-25T02:53:19.408Z,23.50
2018-11-25T02:55:47.606Z,22.83
2018-11-25T02:58:15.920Z,22.27
2018-11-25T03:00:44.146Z,21.40
2018-11-25T03:03:12.509Z,22.30
2018-11-25T03:05:40.765Z,24.60
2018-11-25T03:08:09.168Z,21.20
2018-11-25T03:10:37.446Z,22.83
2018-11-25T03:13:05.725Z,22.70
2018-11-25T03:15:34.037Z,22.20
2018-11-25T03:18:02.243Z,21.90
2018-11-25T03:20:30.538Z,21.77
2018-11-25T03:22:58.857Z,21.33
2018-11-25T03:25:27.258Z,22.57
2018-11-25T03:27:55.459Z,21.83
2018-11-25T03:30:24.040Z,22.43
2018-11-25T03:32:56.638Z,21.40
2018-11-25T03:35:25.277Z,20.13
2018-11-25T03:37:53.478Z,21.57
2018-11-25T03:40:21.698Z,19.90
2018-11-25T03:42:49.959Z,20.30
2018-11-25T03:45:20.480Z,18.37
2018-11-25T03:47:48.706Z,18.10
2018-11-25T03:50:17.119Z,17.23
2018-11-25T03:52:45.345Z,16.73
2018-11-25T03:55:14.557Z,14.70
2018-11-25T03:57:42.737Z,16.87
2018-11-25T04:00:19.837Z,16.53
2018-11-25T04:02:48.397Z,16.97
2018-11-25T04:05:17.638Z,15.23
2018-11-25T04:07:45.878Z,15.53
2018-11-25T04:10:16.527Z,14.50
2018-11-25T04:12:45.050Z,13.70
2018-11-25T04:15:14.810Z,14.77
2018-11-25T04:17:43.077Z,14.37
2018-11-25T04:20:13.438Z,14.80
2018-11-25T04:22:41.717Z,14.03
2018-11-25T04:25:11.145Z,14.70
2018-11-25T04:27:39.465Z,13.87
2018-11-25T04:30:11.226Z,12.47
2018-11-25T04:32:39.518Z,13.90
2018-11-25T04:35:09.568Z,13.73
2018-11-25T04:37:37.929Z,13.47
2018-11-25T04:40:07.738Z,13.00
2018-11-25T04:42:36.098Z,12.97
2018-11-25T04:45:04.618Z,13.53
2018-11-25T04:47:32.956Z,13.03
2018-11-25T04:50:01.200Z,12.87
2018-11-25T04:52:29.406Z,11.93
2018-11-25T04:54:57.617Z,12.03
2018-11-25T04:57:26.257Z,11.70
2018-11-25T04:59:54.565Z,10.77
2018-11-25T05:02:22.845Z,11.47
2018-11-25T05:04:51.786Z,12.40
2018-11-25T05:07:19.880Z,11.23
2018-11-25T05:09:48.257Z,11.23
2018-11-25T05:12:16.477Z,11.40
2018-11-25T05:14:44.697Z,11.77
2018-11-25T05:17:13.437Z,11.87
2018-11-25T05:19:41.757Z,11.33
2018-11-25T05:22:09.998Z,11.33
2018-11-25T05:24:38.365Z,10.97
2018-11-25T05:27:07.126Z,11.67
2018-11-25T05:29:35.447Z,11.53
2018-11-25T05:32:03.798Z,11.87
2018-11-25T05:34:32.037Z,11.50
2018-11-25T05:37:00.321Z,10.77
2018-11-25T05:39:28.981Z,11.73
2018-11-25T05:41:57.399Z,11.30
2018-11-25T05:44:26.198Z,11.83
2018-11-25T05:46:54.458Z,11.07
2018-11-25T05:49:22.758Z,12.83
2018-11-25T05:51:51.138Z,11.07
2018-11-25T05:54:19.358Z,11.57
2018-11-25T05:56:47.597Z,11.40
2018-11-25T05:59:15.906Z,10.07
2018-11-25T06:01:44.237Z,12.33
2018-11-25T06:04:12.601Z,12.20
2018-11-25T06:06:40.837Z,11.17
2018-11-25T06:09:09.165Z,11.27
2018-11-25T06:11:37.398Z,13.20
2018-11-25T06:14:05.760Z,11.70
2018-11-25T06:16:33.997Z,10.67
2018-11-25T06:19:02.280Z,12.13
2018-11-25T06:21:30.477Z,11.83
2018-11-25T06:23:58.818Z,11.43
2018-11-25T06:26:27.917Z,11.63
2018-11-25T06:28:56.457Z,12.03
2018-11-25T06:31:25.318Z,12.00
2018-11-25T06:33:54.101Z,12.40
2018-11-25T06:36:22.338Z,11.57
2018-11-25T06:38:50.665Z,12.33
2018-11-25T06:41:19.005Z,11.90
2018-11-25T06:43:47.285Z,12.13
2018-11-25T06:46:15.526Z,11.87
2018-11-25T06:48:44.727Z,11.90
2018-11-25T06:51:12.929Z,12.57
2018-11-25T06:53:41.146Z,12.83
2018-11-25T06:56:09.317Z,12.80
2018-11-25T06:58:37.677Z,12.13
2018-11-25T07:01:06.326Z,12.70
2018-11-25T07:03:34.653Z,13.07
2018-11-25T07:06:02.930Z,12.80
2018-11-25T07:08:32.197Z,13.63
2018-11-25T07:11:01.178Z,12.80
2018-11-25T07:13:29.898Z,14.03
2018-11-25T07:15:58.137Z,13.37
2018-11-25T07:18:26.457Z,13.63
2018-11-25T07:20:54.837Z,14.20
2018-11-25T07:23:23.066Z,13.60
2018-11-25T07:25:51.345Z,15.07
2018-11-25T07:28:19.797Z,14.30
2018-11-25T07:30:48.238Z,15.67
2018-11-25T07:33:16.577Z,15.77
2018-11-25T07:35:44.937Z,15.57
2018-11-25T07:38:13.258Z,16.03
2018-11-25T07:40:41.538Z,15.23
2018-11-25T07:43:09.806Z,17.03
2018-11-25T07:45:38.044Z,16.23
2018-11-25T07:48:06.337Z,16.53
2018-11-25T07:50:34.769Z,13.83
2018-11-25T07:53:03.105Z,16.27
2018-11-25T07:55:31.378Z,16.37
2018-11-25T07:57:59.645Z,15.63
2018-11-25T08:00:28.038Z,16.77
2018-11-25T08:02:56.377Z,16.93
2018-11-25T08:05:26.382Z,18.30
2018-11-25T08:07:54.658Z,16.30
2018-11-25T08:10:23.085Z,16.57
2018-11-25T08:12:51.397Z,17.53
2018-11-25T08:15:20.038Z,17.17
2018-11-25T08:17:48.367Z,17.03
2018-11-25T08:20:20.078Z,18.27
2018-11-25T08:22:48.465Z,17.33
2018-11-25T08:25:18.786Z,16.63
2018-11-25T08:27:46.968Z,17.53
2018-11-25T08:30:20.938Z,18.50
2018-11-25T08:32:49.305Z,17.60
2018-11-25T08:35:17.757Z,17.17
2018-11-25T08:37:46.126Z,17.97
2018-11-25T08:40:22.117Z,17.90
2018-11-25T08:42:50.397Z,18.93
2018-11-25T08:45:18.717Z,18.63
2018-11-25T08:47:47.005Z,18.27
2018-11-25T08:50:18.241Z,20.07
2018-11-25T08:52:47.477Z,19.77
2018-11-25T08:55:20.221Z,18.40
2018-11-25T08:57:48.519Z,23.00
2018-11-25T09:00:19.845Z,19.27
2018-11-25T09:02:48.920Z,19.50
2018-11-25T09:05:17.208Z,18.07
2018-11-25T09:07:45.498Z,19.07
2018-11-25T09:10:18.478Z,18.60
2018-11-25T09:12:55.276Z,16.47
2018-11-25T09:15:17.685Z,18.53
2018-11-25T09:17:46.058Z,18.70
2018-11-25T09:20:15.702Z,18.57
2018-11-25T09:22:43.938Z,18.83
2018-11-25T09:25:13.998Z,19.13
2018-11-25T09:27:42.197Z,21.97
2018-11-25T09:30:15.826Z,23.73
2018-11-25T09:32:44.078Z,25.57
2018-11-25T09:35:12.818Z,24.37
2018-11-25T09:37:41.098Z,20.43
2018-11-25T09:40:14.920Z,20.97
2018-11-25T09:42:43.166Z,21.27
2018-11-25T09:45:13.645Z,22.13
2018-11-25T09:47:42.159Z,21.47
2018-11-25T09:50:16.639Z,21.70
2018-11-25T09:52:44.961Z,18.77
2018-11-25T09:55:15.101Z,19.07
2018-11-25T09:57:44.738Z,19.63
2018-11-25T10:00:17.697Z,19.97
2018-11-25T10:02:45.865Z,18.63
2018-11-25T10:05:14.138Z,17.93
2018-11-25T10:07:42.465Z,19.43
2018-11-25T10:10:16.898Z,21.00
2018-11-25T10:12:45.222Z,20.33
2018-11-25T10:15:14.665Z,21.63
2018-11-25T10:17:42.989Z,21.57
2018-11-25T10:20:13.466Z,20.57
2018-11-25T10:22:41.657Z,23.43
2018-11-25T10:25:11.298Z,24.60
2018-11-25T10:27:40.477Z,21.63
2018-11-25T10:30:14.197Z,21.10
2018-11-25T10:32:42.578Z,23.23
2018-11-25T10:35:11.078Z,20.70
2018-11-25T10:37:39.998Z,20.80
2018-11-25T10:40:11.398Z,20.73
2018-11-25T10:42:40.717Z,19.00
2018-11-25T10:45:12.358Z,21.23
2018-11-25T10:47:41.426Z,19.63
2018-11-25T10:50:12.541Z,19.47
2018-11-25T10:52:41.797Z,20.30
2018-11-25T10:55:11.298Z,20.17
2018-11-25T10:57:40.698Z,19.67
2018-11-25T11:00:19.917Z,20.30
2018-11-25T11:02:52.645Z,21.83
2018-11-25T11:05:26.318Z,21.50
2018-11-25T11:07:54.697Z,22.27
2018-11-25T11:10:22.967Z,25.60
2018-11-25T11:12:51.101Z,20.40
2018-11-25T11:15:19.358Z,22.07
2018-11-25T11:17:47.606Z,20.83
2018-11-25T11:20:15.822Z,22.10
2018-11-25T11:22:44.205Z,22.47
2018-11-25T11:25:12.526Z,20.53
2018-11-25T11:27:41.617Z,23.20
2018-11-25T11:30:10.780Z,20.73
2018-11-25T11:32:44.585Z,20.57
2018-11-25T11:35:12.996Z,22.03
2018-11-25T11:37:41.545Z,19.50
2018-11-25T11:40:12.078Z,20.67
2018-11-25T11:42:41.117Z,20.23
2018-11-25T11:45:13.299Z,21.17
2018-11-25T11:47:42.798Z,18.87
2018-11-25T11:50:15.459Z,20.67
2018-11-25T11:52:43.777Z,20.60
2018-11-25T11:55:13.965Z,22.37
2018-11-25T11:57:43.338Z,22.53
2018-11-25T12:00:23.217Z,19.50
2018-11-25T12:02:51.797Z,19.60
2018-11-25T12:05:20.177Z,19.73
2018-11-25T12:07:48.578Z,19.33
2018-11-25T12:10:17.557Z,19.53
2018-11-25T12:12:45.867Z,19.20
2018-11-25T12:15:20.465Z,20.40
2018-11-25T12:17:48.881Z,18.87
2018-11-25T12:20:18.230Z,19.30
2018-11-25T12:22:45.798Z,17.90
2018-11-25T12:25:15.579Z,17.47
2018-11-25T12:27:44.388Z,19.63
2018-11-25T12:30:13.999Z,20.03
2018-11-25T12:32:43.141Z,19.77
2018-11-25T12:35:12.777Z,20.67
2018-11-25T12:37:40.998Z,21.07
2018-11-25T12:40:11.598Z,23.20
2018-11-25T12:42:40.097Z,24.80
2018-11-25T12:45:11.217Z,23.40
2018-11-25T12:47:39.518Z,22.77
2018-11-25T12:50:09.939Z,23.80
2018-11-25T12:52:38.337Z,24.33
2018-11-25T12:55:08.829Z,24.83
2018-11-25T12:57:37.120Z,26.20
2018-11-25T13:00:11.778Z,27.87
2018-11-25T13:02:40.058Z,27.30
2018-11-25T13:05:08.158Z,29.80
2018-11-25T13:07:36.558Z,27.20
2018-11-25T13:10:05.046Z,27.37
2018-11-25T13:12:33.358Z,26.93
2018-11-25T13:15:01.567Z,27.27
2018-11-25T13:17:30.066Z,27.47
2018-11-25T13:19:58.457Z,26.60
2018-11-25T13:22:27.026Z,27.57
2018-11-25T13:24:55.286Z,24.87
2018-11-25T13:27:23.581Z,25.97
2018-11-25T13:29:51.957Z,25.27
2018-11-25T13:32:20.261Z,23.47
2018-11-25T13:34:48.581Z,24.60
2018-11-25T13:37:16.945Z,25.17
2018-11-25T13:39:45.167Z,26.70
2018-11-25T13:42:16.251Z,25.37
2018-11-25T13:44:43.557Z,26.43
2018-11-25T13:47:12.617Z,25.87
2018-11-25T13:49:42.025Z,30.07
2018-11-25T13:52:10.258Z,29.27
2018-11-25T13:54:38.765Z,26.93
2018-11-25T13:57:07.349Z,27.43
2018-11-25T13:59:35.637Z,27.40
2018-11-25T14:02:03.985Z,27.93
2018-11-25T14:04:32.266Z,30.03
2018-11-25T14:07:00.529Z,31.40
2018-11-25T14:09:30.197Z,30.27
2018-11-25T14:11:58.545Z,29.40
2018-11-25T14:14:26.926Z,32.50
2018-11-25T14:16:55.285Z,30.87
2018-11-25T14:19:25.697Z,29.93
2018-11-25T14:21:54.057Z,30.07
2018-11-25T14:24:22.238Z,30.73
2018-11-25T14:26:54.160Z,30.23
2018-11-25T14:29:22.838Z,31.33
2018-11-25T14:31:51.198Z,30.40
2018-11-25T14:34:20.238Z,29.77
2018-11-25T14:36:48.799Z,31.93
2018-11-25T14:39:18.277Z,30.33
2018-11-25T14:41:46.526Z,29.50
2018-11-25T14:44:14.945Z,29.93
2018-11-25T14:46:43.165Z,28.73
2018-11-25T14:49:11.486Z,28.20
2018-11-25T14:51:39.845Z,28.27
2018-11-25T14:54:08.305Z,28.30
2018-11-25T14:56:36.578Z,28.70
2018-11-25T14:59:04.865Z,30.10
2018-11-25T15:01:33.166Z,29.90
2018-11-25T15:04:01.438Z,29.80
2018-11-25T15:06:29.773Z,30.50
2018-11-25T15:08:58.181Z,31.17
2018-11-25T15:11:26.445Z,29.20
2018-11-25T15:13:54.966Z,30.17
2018-11-25T15:16:23.265Z,30.03
2018-11-25T15:18:52.278Z,30.30
2018-11-25T15:21:21.245Z,30.73
2018-11-25T15:23:49.553Z,29.90
2018-11-25T15:26:19.357Z,31.20
2018-11-25T15:28:47.657Z,30.87
2018-11-25T15:31:15.846Z,30.80
2018-11-25T15:33:44.046Z,31.37
2018-11-25T15:36:12.486Z,30.53
2018-11-25T15:38:40.865Z,31.30
2018-11-25T15:41:09.019Z,32.17
2018-11-25T15:43:37.266Z,31.57
2018-11-25T15:46:05.618Z,31.23
2018-11-25T15:48:34.118Z,29.73
2018-11-25T15:51:02.525Z,32.87
2018-11-25T15:53:30.861Z,31.33
2018-11-25T15:56:01.526Z,33.93
2018-11-25T15:58:30.040Z,31.73
2018-11-25T16:00:58.417Z,32.43
2018-11-25T16:03:26.908Z,35.37
2018-11-25T16:05:58.538Z,32.70
2018-11-25T16:08:27.077Z,34.40
2018-11-25T16:10:55.545Z,32.10
2018-11-25T16:13:25.083Z,34.27
2018-11-25T16:15:53.457Z,33.90
2018-11-25T16:18:21.829Z,35.47
2018-11-25T16:20:50.178Z,33.77
2018-11-25T16:23:18.647Z,33.67
2018-11-25T16:25:49.618Z,33.43
2018-11-25T16:28:35.849Z,36.30
2018-11-25T16:31:04.717Z,35.93
2018-11-25T16:33:32.997Z,36.20
2018-11-25T16:36:01.326Z,34.77
2018-11-25T16:38:29.598Z,35.53
2018-11-25T16:40:57.921Z,36.33
2018-11-25T16:43:26.137Z,34.87
2018-11-25T16:45:54.397Z,37.93
2018-11-25T16:48:22.577Z,36.30
2018-11-25T16:50:50.857Z,33.63
2018-11-25T16:53:19.282Z,33.87
2018-11-25T16:55:47.577Z,35.33
2018-11-25T16:58:15.885Z,33.87
2018-11-25T17:00:44.545Z,34.93
2018-11-25T17:03:12.817Z,34.70
2018-11-25T17:05:43.418Z,34.83
2018-11-25T17:08:31.826Z,34.70
2018-11-25T17:11:01.790Z,32.07
2018-11-25T17:13:28.918Z,34.47
2018-11-25T17:15:57.406Z,32.80
2018-11-25T17:18:25.686Z,35.63
2018-11-25T17:20:54.057Z,33.57
2018-11-25T17:23:22.385Z,32.20
2018-11-25T17:25:50.817Z,32.60
2018-11-25T17:28:19.168Z,33.50
2018-11-25T17:30:47.785Z,33.47
2018-11-25T17:33:16.425Z,33.73
2018-11-25T17:35:44.865Z,32.93
2018-11-25T17:38:13.157Z,33.77
2018-11-25T17:40:41.438Z,32.60
2018-11-25T17:43:11.517Z,31.93
2018-11-25T17:45:39.948Z,31.73
2018-11-25T17:48:08.238Z,32.30
2018-11-25T17:50:36.618Z,30.83
2018-11-25T17:53:05.038Z,32.33
2018-11-25T17:55:33.598Z,31.80
2018-11-25T17:58:01.842Z,32.70
2018-11-25T18:00:37.241Z,30.97
2018-11-25T18:03:07.660Z,29.63
2018-11-25T18:05:38.912Z,31.47
2018-11-25T18:08:04.637Z,30.37
2018-11-25T18:10:33.479Z,29.43
2018-11-25T18:13:01.770Z,31.77
2018-11-25T18:15:29.997Z,31.83
2018-11-25T18:18:01.098Z,30.93
2018-11-25T18:20:34.378Z,31.47
2018-11-25T18:23:02.986Z,29.40
2018-11-25T18:25:31.405Z,30.03
2018-11-25T18:28:00.319Z,30.83
2018-11-25T18:30:28.209Z,29.20
2018-11-25T18:32:56.737Z,30.77
2018-11-25T18:35:25.265Z,29.67
2018-11-25T18:37:53.745Z,30.03
2018-11-25T18:40:22.297Z,28.17
2018-11-25T18:42:51.541Z,29.53
2018-11-25T18:45:20.459Z,31.40
2018-11-25T18:47:50.357Z,30.93
2018-11-25T18:50:19.958Z,29.13
2018-11-25T18:52:51.317Z,31.77
2018-11-25T18:55:18.217Z,31.67
2018-11-25T18:57:46.517Z,32.67
2018-11-25T19:00:33.878Z,32.90
2018-11-25T19:03:02.398Z,31.07
2018-11-25T19:05:30.925Z,29.60
2018-11-25T19:07:59.606Z,29.67
2018-11-25T19:10:28.158Z,28.80
2018-11-25T19:12:56.886Z,29.97
2018-11-25T19:15:27.477Z,27.67
2018-11-25T19:17:56.157Z,27.37
2018-11-25T19:20:26.317Z,27.70
2018-11-25T19:22:55.338Z,27.80
2018-11-25T19:25:23.906Z,27.97
2018-11-25T19:27:53.357Z,28.20
2018-11-25T19:30:26.687Z,25.93
2018-11-25T19:32:50.945Z,28.27
2018-11-25T19:35:20.918Z,28.73
2018-11-25T19:37:50.740Z,25.33
2018-11-25T19:40:21.030Z,27.50
2018-11-25T19:42:49.820Z,26.80
2018-11-25T19:45:23.797Z,26.40
2018-11-25T19:47:52.678Z,26.50
2018-11-25T19:50:24.037Z,28.87
2018-11-25T19:52:53.161Z,26.00
2018-11-25T19:55:21.891Z,28.63
2018-11-25T19:57:50.578Z,29.30
2018-11-25T20:00:20.998Z,28.07
2018-11-25T20:02:49.785Z,27.63
2018-11-25T20:05:18.418Z,29.63
2018-11-25T20:07:47.183Z,28.83
2018-11-25T20:10:17.238Z,30.27
2018-11-25T20:12:47.617Z,30.27
2018-11-25T20:15:17.437Z,28.57
2018-11-25T20:17:54.208Z,30.50
2018-11-25T20:20:19.245Z,29.37
2018-11-25T20:22:48.298Z,31.77
2018-11-25T20:25:18.097Z,30.27
2018-11-25T20:27:48.577Z,31.73
2018-11-25T20:30:20.921Z,30.97
2018-11-25T20:32:54.757Z,30.70
2018-11-25T20:35:23.498Z,34.37
2018-11-25T20:37:57.537Z,30.37
2018-11-25T20:40:26.205Z,31.73
2018-11-25T20:42:54.917Z,32.60
2018-11-25T20:45:29.185Z,33.63
2018-11-25T20:48:00.240Z,31.27
2018-11-25T20:50:28.861Z,32.03
2018-11-25T20:53:02.925Z,33.60
2018-11-25T20:55:31.608Z,31.90
2018-11-25T20:58:00.019Z,32.13
2018-11-25T21:00:29.678Z,30.27
2018-11-25T21:02:58.097Z,31.67
2018-11-25T21:05:26.758Z,31.03
2018-11-25T21:07:55.057Z,31.93
2018-11-25T21:10:23.497Z,29.43
2018-11-25T21:12:55.677Z,30.23
2018-11-25T21:15:24.038Z,30.80
2018-11-25T21:17:52.319Z,29.23
2018-11-25T21:20:22.839Z,28.77
2018-11-25T21:22:51.277Z,30.07
2018-11-25T21:25:20.920Z,29.27
2018-11-25T21:27:49.346Z,30.50
2018-11-25T21:30:19.878Z,30.07
2018-11-25T21:32:49.158Z,31.87
2018-11-25T21:35:17.479Z,33.33
2018-11-25T21:37:45.759Z,30.97
2018-11-25T21:40:15.917Z,32.20
2018-11-25T21:42:44.866Z,30.87
2018-11-25T21:45:15.318Z,31.13
2018-11-25T21:47:45.097Z,30.63
2018-11-25T21:50:22.438Z,29.17
2018-11-25T21:52:51.599Z,28.10
2018-11-25T21:55:20.520Z,28.30
2018-11-25T21:57:48.862Z,29.33
2018-11-25T22:00:20.118Z,27.33
2018-11-25T22:02:48.897Z,27.77
2018-11-25T22:05:17.886Z,26.73
2018-11-25T22:07:46.558Z,26.30
2018-11-25T22:10:19.917Z,27.47
2018-11-25T22:12:48.700Z,25.43
2018-11-25T22:15:20.327Z,26.00
2018-11-25T22:17:50.218Z,27.40
2018-11-25T22:20:18.897Z,26.87
2018-11-25T22:22:47.586Z,27.10
2018-11-25T22:25:17.617Z,25.80
2018-11-25T22:27:46.657Z,26.07
2018-11-25T22:30:20.018Z,26.37
2018-11-25T22:32:48.385Z,25.97
2018-11-25T22:35:18.918Z,25.70
2018-11-25T22:37:47.181Z,25.37
2018-11-25T22:40:16.320Z,26.13
2018-11-25T22:42:45.458Z,26.27
2018-11-25T22:45:16.327Z,26.57
2018-11-25T22:47:45.165Z,24.90
2018-11-25T22:50:15.393Z,24.73
2018-11-25T22:52:43.706Z,26.70
2018-11-25T22:55:17.826Z,25.60
2018-11-25T22:57:46.101Z,26.87
2018-11-25T23:00:22.406Z,25.33
2018-11-25T23:02:50.625Z,23.70
2018-11-25T23:07:27.978Z,25.10
2018-11-25T23:09:56.374Z,24.77
2018-11-25T23:12:24.705Z,24.37
2018-11-25T23:14:52.858Z,23.73
2018-11-25T23:17:21.038Z,23.33
2018-11-25T23:19:49.497Z,24.07
2018-11-25T23:22:17.905Z,25.73
2018-11-25T23:24:46.126Z,24.53
2018-11-25T23:27:14.445Z,24.30
2018-11-25T23:29:42.685Z,26.17
2018-11-25T23:32:11.045Z,24.70
2018-11-25T23:34:39.394Z,24.87
2018-11-25T23:37:08.898Z,26.07
2018-11-25T23:39:37.045Z,25.37
2018-11-25T23:42:05.377Z,25.33
2018-11-25T23:44:33.565Z,26.13
2018-11-25T23:47:01.845Z,26.20
2018-11-25T23:49:30.067Z,25.63
2018-11-25T23:51:58.446Z,23.47
2018-11-25T23:54:26.665Z,24.57
2018-11-25T23:56:54.988Z,23.93
2018-11-25T23:59:23.187Z,24.73
